createdAt,value
2019-02-15T00:02:17.275Z,101002.41
2019-02-15T00:04:48.166Z,100995.52
2019-02-15T00:07:19.174Z,101000.70
2019-02-15T00:09:49.963Z,101006.73
2019-02-15T00:12:21.226Z,101004.53
2019-02-15T00:14:52.126Z,101000.33
2019-02-15T00:17:51.032Z,100998.83
2019-02-15T00:20:29.952Z,101002.95
2019-02-15T00:23:00.763Z,101000.40
2019-02-15T00:25:31.721Z,100990.97
2019-02-15T00:28:02.632Z,100998.81
2019-02-15T00:30:33.519Z,101008.00
2019-02-15T00:33:04.496Z,101004.38
2019-02-15T00:35:35.278Z,100999.14
2019-02-15T00:38:06.167Z,100996.40
2019-02-15T00:40:36.976Z,100992.75
2019-02-15T00:43:07.857Z,100985.71
2019-02-15T00:45:56.977Z,100987.04
2019-02-15T00:48:28.247Z,100982.58
2019-02-15T00:51:20.665Z,100982.52
2019-02-15T00:54:01.103Z,100979.63
2019-02-15T00:56:36.976Z,100986.88
2019-02-15T00:59:26.839Z,100987.11
2019-02-15T01:02:10.782Z,100984.70
2019-02-15T01:05:07.425Z,100976.27
2019-02-15T01:07:56.183Z,100972.31
2019-02-15T01:10:49.136Z,100973.38
2019-02-15T01:13:30.752Z,100973.14
2019-02-15T01:15:55.156Z,100970.33
2019-02-15T01:18:26.038Z,100963.80
2019-02-15T01:20:57.030Z,100963.39
2019-02-15T01:23:27.837Z,100962.98
2019-02-15T01:26:07.601Z,100964.92
2019-02-15T01:28:57.450Z,100966.59
2019-02-15T01:31:40.778Z,100975.87
2019-02-15T01:34:30.594Z,100980.52
2019-02-15T01:37:15.095Z,100984.73
2019-02-15T01:40:07.766Z,100974.84
2019-02-15T01:42:47.407Z,100980.96
2019-02-15T01:45:23.158Z,100975.66
2019-02-15T01:47:54.150Z,100979.05
2019-02-15T01:50:25.139Z,100975.81
2019-02-15T01:52:56.140Z,100975.93
2019-02-15T01:55:26.928Z,100976.81
2019-02-15T01:57:57.815Z,100976.34
2019-02-15T02:00:32.699Z,100976.84
2019-02-15T02:03:03.666Z,100971.31
2019-02-15T02:05:34.554Z,100969.98
2019-02-15T02:08:06.709Z,100964.06
2019-02-15T02:10:37.466Z,100961.30
2019-02-15T02:13:08.501Z,100962.48
2019-02-15T02:15:39.451Z,100957.77
2019-02-15T02:18:10.609Z,100960.62
2019-02-15T02:20:41.522Z,100954.61
2019-02-15T02:23:12.665Z,100959.65
2019-02-15T02:25:43.510Z,100954.23
2019-02-15T02:28:14.407Z,100951.43
2019-02-15T02:30:45.287Z,100949.72
2019-02-15T02:33:16.265Z,100947.98
2019-02-15T02:35:47.252Z,100953.19
2019-02-15T02:38:18.340Z,100944.39
2019-02-15T02:40:49.134Z,100948.21
2019-02-15T02:43:20.020Z,100946.34
2019-02-15T02:45:50.807Z,100938.64
2019-02-15T02:48:21.751Z,100934.70
2019-02-15T02:50:52.708Z,100936.61
2019-02-15T02:53:23.987Z,100942.84
2019-02-15T02:55:54.768Z,100943.19
2019-02-15T02:58:25.783Z,100946.46
2019-02-15T03:00:56.764Z,100942.17
2019-02-15T03:03:27.662Z,100943.42
2019-02-15T03:05:58.618Z,100941.98
2019-02-15T03:08:29.512Z,100942.84
2019-02-15T03:11:00.300Z,100940.86
2019-02-15T03:13:31.496Z,100945.84
2019-02-15T03:16:02.274Z,100941.94
2019-02-15T03:18:33.258Z,100944.39
2019-02-15T03:21:04.147Z,100944.67
2019-02-15T03:23:35.360Z,100941.91
2019-02-15T03:26:06.248Z,100940.97
2019-02-15T03:28:37.136Z,100938.09
2019-02-15T03:31:07.901Z,100938.20
2019-02-15T03:33:38.799Z,100938.32
2019-02-15T03:36:13.029Z,100938.64
2019-02-15T03:38:48.711Z,100934.73
2019-02-15T03:41:28.400Z,100925.86
2019-02-15T03:43:59.451Z,100930.33
2019-02-15T03:46:30.232Z,100926.20
2019-02-15T03:49:01.336Z,100929.36
2019-02-15T03:51:32.319Z,100926.75
2019-02-15T03:54:03.407Z,100924.45
2019-02-15T03:56:34.313Z,100925.46
2019-02-15T03:59:05.185Z,100930.44
2019-02-15T04:01:35.980Z,100925.95
2019-02-15T04:04:07.040Z,100931.52
2019-02-15T04:06:37.969Z,100929.90
2019-02-15T04:09:08.955Z,100930.17
2019-02-15T04:11:39.826Z,100931.56
2019-02-15T04:14:11.109Z,100928.92
2019-02-15T04:16:42.020Z,100926.05
2019-02-15T04:19:12.919Z,100922.27
2019-02-15T04:21:43.787Z,100920.72
2019-02-15T04:24:14.681Z,100920.14
2019-02-15T04:26:45.451Z,100922.91
2019-02-15T04:29:16.646Z,100916.64
2019-02-15T04:31:48.473Z,100919.08
2019-02-15T04:34:19.376Z,100929.36
2019-02-15T04:36:51.148Z,100926.05
2019-02-15T04:39:22.070Z,100928.41
2019-02-15T04:41:53.057Z,100922.45
2019-02-15T04:44:24.055Z,100930.20
2019-02-15T04:46:55.014Z,100924.97
2019-02-15T04:49:25.893Z,100923.69
2019-02-15T04:51:56.792Z,100920.17
2019-02-15T04:54:27.681Z,100915.10
2019-02-15T04:56:58.473Z,100922.55
2019-02-15T04:59:29.372Z,100924.41
2019-02-15T05:02:00.333Z,100924.41
2019-02-15T05:04:31.303Z,100921.72
2019-02-15T05:07:04.102Z,100918.59
2019-02-15T05:09:35.743Z,100922.09
2019-02-15T05:12:06.583Z,100917.16
2019-02-15T05:14:37.344Z,100923.14
2019-02-15T05:17:08.132Z,100929.68
2019-02-15T05:19:39.030Z,100928.59
2019-02-15T05:22:09.910Z,100929.30
2019-02-15T05:24:40.780Z,100926.02
2019-02-15T05:27:12.740Z,100930.21
2019-02-15T05:29:43.770Z,100938.89
2019-02-15T05:32:14.563Z,100934.92
2019-02-15T05:34:45.490Z,100934.59
2019-02-15T05:37:16.459Z,100940.86
2019-02-15T05:39:47.439Z,100942.95
2019-02-15T05:42:18.233Z,100934.19
2019-02-15T05:44:49.115Z,100932.91
2019-02-15T05:47:19.894Z,100930.36
2019-02-15T05:49:50.634Z,100934.27
2019-02-15T05:52:21.504Z,100935.23
2019-02-15T05:54:52.304Z,100926.97
2019-02-15T05:57:23.208Z,100932.81
2019-02-15T05:59:53.984Z,100923.44
2019-02-15T06:02:25.012Z,100936.83
2019-02-15T06:04:55.885Z,100934.66
2019-02-15T06:07:26.785Z,100934.60
2019-02-15T06:09:57.735Z,100939.26
2019-02-15T06:12:28.576Z,100929.61
2019-02-15T06:14:59.372Z,100933.41
2019-02-15T06:17:30.372Z,100934.38
2019-02-15T06:20:01.332Z,100933.58
2019-02-15T06:22:32.218Z,100934.90
2019-02-15T06:25:03.011Z,100942.72
2019-02-15T06:27:33.787Z,100937.55
2019-02-15T06:30:04.973Z,100940.77
2019-02-15T06:32:35.871Z,100940.63
2019-02-15T06:35:06.865Z,100938.52
2019-02-15T06:37:37.761Z,100938.13
2019-02-15T06:40:08.749Z,100948.34
2019-02-15T06:42:39.521Z,100945.48
2019-02-15T06:45:10.510Z,100952.89
2019-02-15T06:47:41.419Z,100947.02
2019-02-15T06:50:12.303Z,100954.95
2019-02-15T06:52:43.281Z,100960.83
2019-02-15T06:55:14.562Z,100965.37
2019-02-15T06:57:45.470Z,100963.58
2019-02-15T07:00:34.219Z,100965.94
2019-02-15T07:03:21.462Z,100966.16
2019-02-15T07:05:52.396Z,100965.30
2019-02-15T07:08:23.221Z,100970.66
2019-02-15T07:10:54.193Z,100976.34
2019-02-15T07:13:25.084Z,100979.91
2019-02-15T07:15:56.075Z,100971.40
2019-02-15T07:18:26.965Z,100976.86
2019-02-15T07:20:58.255Z,100981.35
2019-02-15T07:23:29.060Z,100976.92
2019-02-15T07:26:00.018Z,100969.78
2019-02-15T07:28:30.824Z,100973.01
2019-02-15T07:31:01.764Z,100972.90
2019-02-15T07:33:32.614Z,100967.09
2019-02-15T07:36:03.707Z,100971.11
2019-02-15T07:38:34.477Z,100968.05
2019-02-15T07:41:06.090Z,100967.30
2019-02-15T07:43:37.092Z,100966.34
2019-02-15T07:46:08.049Z,100972.42
2019-02-15T07:48:38.960Z,100977.66
2019-02-15T07:51:10.166Z,100967.97
2019-02-15T07:53:41.042Z,100964.16
2019-02-15T07:56:12.041Z,100972.84
2019-02-15T07:58:42.923Z,100981.30
2019-02-15T08:01:13.916Z,100976.98
2019-02-15T08:03:44.801Z,100978.36
2019-02-15T08:06:16.984Z,100982.59
2019-02-15T08:08:47.906Z,100976.95
2019-02-15T08:11:19.496Z,100975.70
2019-02-15T08:13:50.288Z,100967.02
2019-02-15T08:16:21.353Z,100972.98
2019-02-15T08:18:52.170Z,100969.48
2019-02-15T08:21:24.476Z,100970.06
2019-02-15T08:23:55.277Z,100966.89
2019-02-15T08:26:26.242Z,100970.22
2019-02-15T08:28:57.055Z,100971.12
2019-02-15T08:31:28.398Z,100961.78
2019-02-15T08:33:59.231Z,100962.89
2019-02-15T08:36:30.414Z,100960.14
2019-02-15T08:39:01.297Z,100962.72
2019-02-15T08:41:34.395Z,100959.72
2019-02-15T08:44:05.436Z,100964.08
2019-02-15T08:46:36.338Z,100963.41
2019-02-15T08:49:07.126Z,100955.93
2019-02-15T08:51:37.882Z,100957.48
2019-02-15T08:54:08.895Z,100959.55
2019-02-15T08:56:39.867Z,100950.39
2019-02-15T08:59:10.653Z,100958.02
2019-02-15T09:01:41.651Z,100952.32
2019-02-15T09:04:12.447Z,100944.95
2019-02-15T09:06:43.416Z,100947.48
2019-02-15T09:09:14.323Z,100947.47
2019-02-15T09:11:45.192Z,100949.25
2019-02-15T09:14:15.984Z,100942.50
2019-02-15T09:16:47.179Z,100949.45
2019-02-15T09:19:18.056Z,100947.62
2019-02-15T09:21:48.944Z,100947.70
2019-02-15T09:24:19.734Z,100945.84
2019-02-15T09:26:50.829Z,100943.85
2019-02-15T09:29:21.717Z,100947.69
2019-02-15T09:31:52.595Z,100947.16
2019-02-15T09:34:23.415Z,100946.14
2019-02-15T09:36:54.726Z,100937.75
2019-02-15T09:39:25.582Z,100937.78
2019-02-15T09:41:56.657Z,100937.23
2019-02-15T09:44:27.524Z,100937.69
2019-02-15T09:46:58.519Z,100948.34
2019-02-15T09:49:29.340Z,100940.41
2019-02-15T09:52:00.227Z,100933.70
2019-02-15T09:54:31.116Z,100938.02
2019-02-15T09:57:02.003Z,100937.00
2019-02-15T09:59:34.108Z,100939.47
2019-02-15T10:02:05.098Z,100937.27
2019-02-15T10:04:35.882Z,100934.97
2019-02-15T10:07:06.841Z,100937.64
2019-02-15T10:09:37.780Z,100939.20
2019-02-15T10:12:08.663Z,100933.23
2019-02-15T10:14:39.339Z,100931.87
2019-02-15T10:17:10.254Z,100935.86
2019-02-15T10:19:41.207Z,100928.95
2019-02-15T10:22:12.256Z,100932.86
2019-02-15T10:24:43.198Z,100927.23
2019-02-15T10:27:14.188Z,100926.92
2019-02-15T10:29:44.967Z,100921.02
2019-02-15T10:32:15.945Z,100922.72
2019-02-15T10:34:46.826Z,100921.47
2019-02-15T10:37:18.011Z,100917.45
2019-02-15T10:39:49.046Z,100920.84
2019-02-15T10:42:20.020Z,100926.72
2019-02-15T10:44:50.792Z,100911.75
2019-02-15T10:47:24.931Z,100911.42
2019-02-15T10:49:54.330Z,100908.25
2019-02-15T10:52:25.199Z,100908.20
2019-02-15T10:54:57.207Z,100906.91
2019-02-15T10:57:28.200Z,100909.69
2019-02-15T10:59:58.983Z,100904.38
2019-02-15T11:02:29.875Z,100905.67
2019-02-15T11:05:00.573Z,100896.26
2019-02-15T11:07:31.489Z,100895.97
2019-02-15T11:10:02.244Z,100889.67
2019-02-15T11:12:33.204Z,100887.34
2019-02-15T11:15:04.100Z,100884.08
2019-02-15T11:17:35.168Z,100880.91
2019-02-15T11:20:06.503Z,100872.59
2019-02-15T11:22:37.508Z,100867.80
2019-02-15T11:25:09.505Z,100865.19
2019-02-15T11:27:40.739Z,100866.69
2019-02-15T11:30:13.135Z,100861.63
2019-02-15T11:32:44.136Z,100853.33
2019-02-15T11:35:15.400Z,100848.82
2019-02-15T11:37:46.400Z,100848.52
2019-02-15T11:40:17.303Z,100847.53
2019-02-15T11:42:48.293Z,100840.98
2019-02-15T11:45:19.258Z,100838.00
2019-02-15T11:47:50.166Z,100834.81
2019-02-15T11:50:21.033Z,100829.65
2019-02-15T11:52:51.821Z,100828.83
2019-02-15T11:55:22.720Z,100822.79
2019-02-15T11:57:53.634Z,100819.76
2019-02-15T12:00:29.184Z,100810.86
2019-02-15T12:03:00.201Z,100810.84
2019-02-15T12:05:31.180Z,100805.44
2019-02-15T12:08:02.177Z,100802.79
2019-02-15T12:10:33.153Z,100800.56
2019-02-15T12:13:04.240Z,100790.52
2019-02-15T12:15:35.048Z,100783.77
2019-02-15T12:18:06.872Z,100784.20
2019-02-15T12:20:37.924Z,100779.31
2019-02-15T12:23:08.826Z,100782.36
2019-02-15T12:25:39.709Z,100774.23
2019-02-15T12:28:10.704Z,100772.89
2019-02-15T12:30:41.482Z,100766.27
2019-02-15T12:33:12.491Z,100767.17
2019-02-15T12:35:43.436Z,100771.98
2019-02-15T12:38:14.366Z,100764.22
2019-02-15T12:40:45.139Z,100758.66
2019-02-15T12:43:16.125Z,100757.30
2019-02-15T12:45:48.031Z,100763.34
2019-02-15T12:48:18.998Z,100755.66
2019-02-15T12:50:50.841Z,100756.22
2019-02-15T12:53:22.004Z,100750.82
2019-02-15T12:55:52.911Z,100747.88
2019-02-15T12:58:23.922Z,100749.06
2019-02-15T13:00:54.718Z,100747.73
2019-02-15T13:03:26.120Z,100749.34
2019-02-15T13:05:56.877Z,100746.05
2019-02-15T13:08:28.259Z,100743.75
2019-02-15T13:10:59.110Z,100738.58
2019-02-15T13:13:30.059Z,100737.05
2019-02-15T13:16:00.837Z,100732.80
2019-02-15T13:18:31.752Z,100728.97
2019-02-15T13:21:03.746Z,100731.03
2019-02-15T13:23:34.940Z,100721.45
2019-02-15T13:26:08.465Z,100726.62
2019-02-15T13:28:38.164Z,100715.88
2019-02-15T13:31:08.934Z,100710.62
2019-02-15T13:33:39.848Z,100714.98
2019-02-15T13:36:10.800Z,100709.09
2019-02-15T13:38:41.896Z,100706.89
2019-02-15T13:41:12.789Z,100703.63
2019-02-15T13:43:43.779Z,100703.72
2019-02-15T13:46:14.589Z,100703.03
2019-02-15T13:48:45.476Z,100704.65
2019-02-15T13:51:16.453Z,100701.75
2019-02-15T13:53:47.790Z,100704.89
2019-02-15T13:56:18.742Z,100699.03
2019-02-15T13:58:49.741Z,100697.23
2019-02-15T14:01:20.608Z,100693.91
2019-02-15T14:03:51.477Z,100697.91
2019-02-15T14:06:22.383Z,100686.79
2019-02-15T14:08:53.463Z,100681.40
2019-02-15T14:11:24.271Z,100683.05
2019-02-15T14:13:55.155Z,100683.98
2019-02-15T14:16:25.940Z,100675.89
2019-02-15T14:18:56.932Z,100673.08
2019-02-15T14:21:27.797Z,100668.50
2019-02-15T14:23:58.704Z,100667.65
2019-02-15T14:26:29.472Z,100666.05
2019-02-15T14:29:00.393Z,100664.15
2019-02-15T14:31:31.369Z,100667.09
2019-02-15T14:34:02.271Z,100662.95
2019-02-15T14:36:32.938Z,100656.83
2019-02-15T14:39:06.469Z,100656.09
2019-02-15T14:41:37.571Z,100659.30
2019-02-15T14:44:08.469Z,100649.75
2019-02-15T14:46:39.253Z,100652.73
2019-02-15T14:49:10.137Z,100651.46
2019-02-15T14:51:41.460Z,100644.69
2019-02-15T14:54:12.326Z,100643.38
2019-02-15T14:56:43.295Z,100645.14
2019-02-15T14:59:14.195Z,100642.34
2019-02-15T15:01:45.773Z,100644.33
2019-02-15T15:04:16.681Z,100638.98
2019-02-15T15:06:47.563Z,100636.92
2019-02-15T15:09:18.507Z,100635.78
2019-02-15T15:11:49.368Z,100634.49
2019-02-15T15:14:20.349Z,100631.17
2019-02-15T15:16:51.131Z,100626.05
2019-02-15T15:19:22.138Z,100626.28
2019-02-15T15:21:53.006Z,100621.95
2019-02-15T15:24:23.804Z,100619.27
2019-02-15T15:26:54.579Z,100610.88
2019-02-15T15:29:25.476Z,100609.55
2019-02-15T15:31:56.340Z,100612.12
2019-02-15T15:34:27.223Z,100611.66
2019-02-15T15:36:58.028Z,100604.16
2019-02-15T15:39:28.914Z,100604.86
2019-02-15T15:41:59.799Z,100605.91
2019-02-15T15:44:31.387Z,100605.44
2019-02-15T15:47:02.291Z,100605.52
2019-02-15T15:49:33.654Z,100602.70
2019-02-15T15:52:04.470Z,100601.88
2019-02-15T15:54:35.643Z,100601.26
2019-02-15T15:57:06.663Z,100604.30
2019-02-15T15:59:37.633Z,100603.11
2019-02-15T16:02:08.542Z,100601.42
2019-02-15T16:04:39.432Z,100600.44
2019-02-15T16:07:10.409Z,100598.60
2019-02-15T16:09:41.294Z,100598.60
2019-02-15T16:12:12.203Z,100592.25
2019-02-15T16:14:43.589Z,100591.92
2019-02-15T16:17:14.363Z,100588.40
2019-02-15T16:19:49.450Z,100583.06
2019-02-15T16:22:18.000Z,100585.25
2019-02-15T16:24:48.984Z,100591.59
2019-02-15T16:27:19.766Z,100594.14
2019-02-15T16:29:50.761Z,100599.49
2019-02-15T16:32:21.730Z,100603.50
2019-02-15T16:34:52.619Z,100601.84
2019-02-15T16:37:23.411Z,100602.67
2019-02-15T16:39:54.298Z,100599.84
2019-02-15T16:42:25.185Z,100604.02
2019-02-15T16:44:56.971Z,100604.17
2019-02-15T16:47:27.687Z,100600.45
2019-02-15T16:49:58.577Z,100602.98
2019-02-15T16:52:29.578Z,100598.97
2019-02-15T16:55:00.830Z,100605.48
2019-02-15T16:57:31.838Z,100606.52
2019-02-15T17:00:02.840Z,100607.84
2019-02-15T17:02:34.322Z,100607.15
2019-02-15T17:05:05.396Z,100612.19
2019-02-15T17:07:36.343Z,100610.83
2019-02-15T17:10:07.824Z,100613.17
2019-02-15T17:12:38.816Z,100623.02
2019-02-15T17:15:10.320Z,100621.30
2019-02-15T17:17:41.293Z,100623.14
2019-02-15T17:20:12.400Z,100623.64
2019-02-15T17:22:48.803Z,100618.92
2019-02-15T17:25:19.781Z,100618.23
2019-02-15T17:27:50.591Z,100622.40
2019-02-15T17:30:21.477Z,100619.56
2019-02-15T17:32:52.250Z,100617.55
2019-02-15T17:35:23.158Z,100615.97
2019-02-15T17:37:54.130Z,100618.46
2019-02-15T17:40:25.652Z,100613.60
2019-02-15T17:42:58.443Z,100618.08
2019-02-15T17:45:29.348Z,100618.19
2019-02-15T17:48:00.234Z,100615.98
2019-02-15T17:50:31.229Z,100617.91
2019-02-15T17:53:01.804Z,100615.84
2019-02-15T17:55:32.807Z,100614.64
2019-02-15T17:58:03.802Z,100616.43
2019-02-15T18:00:35.853Z,100610.00
2019-02-15T18:03:06.804Z,100614.02
2019-02-15T18:05:37.880Z,100611.70
2019-02-15T18:08:08.680Z,100605.98
2019-02-15T18:10:39.694Z,100606.97
2019-02-15T18:13:10.560Z,100607.09
2019-02-15T18:15:41.365Z,100607.20
2019-02-15T18:18:12.122Z,100610.33
2019-02-15T18:20:43.006Z,100608.87
2019-02-15T18:23:13.897Z,100605.61
2019-02-15T18:25:44.781Z,100600.50
2019-02-15T18:28:15.561Z,100605.72
2019-02-15T18:30:46.667Z,100605.56
2019-02-15T18:33:17.458Z,100599.17
2019-02-15T18:35:48.532Z,100604.62
2019-02-15T18:38:19.217Z,100608.10
2019-02-15T18:40:50.341Z,100612.86
2019-02-15T18:43:21.201Z,100609.28
2019-02-15T18:45:52.185Z,100611.41
2019-02-15T18:48:23.022Z,100612.27
2019-02-15T18:50:53.898Z,100615.58
2019-02-15T18:53:24.648Z,100610.34
2019-02-15T18:55:55.624Z,100611.14
2019-02-15T18:58:26.535Z,100608.73
2019-02-15T19:00:57.534Z,100612.47
2019-02-15T19:03:28.412Z,100610.54
2019-02-15T19:06:00.228Z,100602.34
2019-02-15T19:08:31.107Z,100605.47
2019-02-15T19:11:02.013Z,100600.13
2019-02-15T19:13:32.938Z,100609.90
2019-02-15T19:16:04.165Z,100607.72
2019-02-15T19:18:35.241Z,100610.48
2019-02-15T19:21:06.301Z,100604.69
2019-02-15T19:23:37.129Z,100603.51
2019-02-15T19:26:08.600Z,100599.30
2019-02-15T19:28:39.520Z,100594.27
2019-02-15T19:31:10.337Z,100592.53
2019-02-15T19:33:41.191Z,100589.72
2019-02-15T19:36:12.214Z,100597.66
2019-02-15T19:38:43.087Z,100592.41
2019-02-15T19:41:14.055Z,100594.89
2019-02-15T19:43:44.967Z,100594.47
2019-02-15T19:46:16.035Z,100591.84
2019-02-15T19:48:46.923Z,100588.75
2019-02-15T19:51:17.915Z,100590.17
2019-02-15T19:53:48.707Z,100591.31
2019-02-15T19:56:19.696Z,100592.21
2019-02-15T19:58:50.703Z,100584.81
2019-02-15T20:01:21.677Z,100585.71
2019-02-15T20:03:52.474Z,100591.04
2019-02-15T20:06:23.669Z,100591.70
2019-02-15T20:08:54.462Z,100594.30
2019-02-15T20:11:25.343Z,100589.27
2019-02-15T20:13:56.216Z,100591.58
2019-02-15T20:16:27.345Z,100592.06
2019-02-15T20:18:58.291Z,100595.43
2019-02-15T20:21:29.220Z,100595.77
2019-02-15T20:23:59.985Z,100587.07
2019-02-15T20:26:32.050Z,100592.68
2019-02-15T20:29:02.970Z,100595.34
2019-02-15T20:31:34.257Z,100589.94
2019-02-15T20:34:05.172Z,100583.72
2019-02-15T20:36:36.058Z,100592.95
2019-02-15T20:39:07.131Z,100584.83
2019-02-15T20:41:38.655Z,100587.00
2019-02-15T20:44:12.129Z,100585.59
2019-02-15T20:46:43.965Z,100582.58
2019-02-15T20:49:19.154Z,100586.00
2019-02-15T20:51:49.863Z,100585.30
2019-02-15T20:54:20.674Z,100586.35
2019-02-15T20:56:51.563Z,100585.84
2019-02-15T20:59:22.444Z,100590.59
2019-02-15T21:01:53.343Z,100589.55
2019-02-15T21:04:24.212Z,100586.47
2019-02-15T21:06:55.095Z,100586.52
2019-02-15T21:09:25.869Z,100583.48
2019-02-15T21:11:56.785Z,100582.58
2019-02-15T21:14:27.567Z,100576.19
2019-02-15T21:16:58.827Z,100576.23
2019-02-15T21:19:29.734Z,100576.80
2019-02-15T21:22:00.716Z,100583.22
2019-02-15T21:24:31.602Z,100578.52
2019-02-15T21:27:02.494Z,100580.23
2019-02-15T21:29:33.277Z,100575.11
2019-02-15T21:32:04.176Z,100572.86
2019-02-15T21:34:34.946Z,100571.77
2019-02-15T21:37:05.858Z,100578.27
2019-02-15T21:39:36.635Z,100574.15
2019-02-15T21:42:07.530Z,100574.29
2019-02-15T21:44:38.312Z,100572.82
2019-02-15T21:47:09.474Z,100575.18
2019-02-15T21:49:40.277Z,100569.02
2019-02-15T21:52:11.407Z,100574.33
2019-02-15T21:54:42.276Z,100569.93
2019-02-15T21:57:13.263Z,100575.38
2019-02-15T21:59:44.233Z,100571.05
2019-02-15T22:02:15.282Z,100569.95
2019-02-15T22:04:46.133Z,100572.65
2019-02-15T22:07:17.194Z,100573.36
2019-02-15T22:09:48.096Z,100570.05
2019-02-15T22:12:18.972Z,100574.93
2019-02-15T22:14:49.769Z,100578.48
2019-02-15T22:17:20.670Z,100576.95
2019-02-15T22:19:51.541Z,100577.22
2019-02-15T22:22:22.430Z,100578.11
2019-02-15T22:24:53.234Z,100572.42
2019-02-15T22:27:24.121Z,100570.48
2019-02-15T22:29:54.885Z,100569.05
2019-02-15T22:32:25.860Z,100573.55
2019-02-15T22:34:56.761Z,100571.27
2019-02-15T22:37:27.653Z,100575.28
2019-02-15T22:39:58.573Z,100571.67
2019-02-15T22:42:29.345Z,100573.81
2019-02-15T22:45:00.307Z,100565.75
2019-02-15T22:47:31.401Z,100568.91
2019-02-15T22:50:02.201Z,100567.34
2019-02-15T22:52:33.163Z,100559.07
2019-02-15T22:55:04.068Z,100557.03
2019-02-15T22:57:35.056Z,100558.56
2019-02-15T23:00:12.992Z,100553.52
2019-02-15T23:02:43.075Z,100552.80
2019-02-15T23:05:15.006Z,100543.20
2019-02-15T23:07:46.146Z,100548.14
2019-02-15T23:10:17.066Z,100545.99
2019-02-15T23:12:48.061Z,100543.34
2019-02-15T23:15:18.946Z,100551.40
2019-02-15T23:17:50.560Z,100544.31
2019-02-15T23:20:21.441Z,100543.73
2019-02-15T23:22:52.384Z,100545.67
2019-02-15T23:25:25.006Z,100541.69
2019-02-15T23:27:56.351Z,100541.45
2019-02-15T23:30:27.144Z,100541.08
2019-02-15T23:32:58.262Z,100539.80
2019-02-15T23:35:29.015Z,100538.74
2019-02-15T23:38:00.220Z,100540.18
2019-02-15T23:40:31.121Z,100538.48
2019-02-15T23:43:02.303Z,100536.20
2019-02-15T23:45:34.203Z,100532.45
2019-02-15T23:48:05.321Z,100532.80
2019-02-15T23:50:37.127Z,100531.34
2019-02-15T23:53:09.133Z,100532.11
2019-02-15T23:55:39.924Z,100532.29
2019-02-15T23:58:10.826Z,100532.39
